createdAt,value
2018-07-11T00:00:55.268Z,22.19
2018-07-11T00:01:55.232Z,22.06
2018-07-11T00:02:55.222Z,22.08
2018-07-11T00:03:55.212Z,22.08
2018-07-11T00:04:55.200Z,22.08
2018-07-11T00:05:55.213Z,22.09
2018-07-11T00:06:55.179Z,22.09
2018-07-11T00:07:55.167Z,22.14
2018-07-11T00:08:55.158Z,22.14
2018-07-11T00:09:55.146Z,22.08
2018-07-11T00:10:55.156Z,22.08
2018-07-11T00:11:55.122Z,22.12
2018-07-11T00:12:55.112Z,22.05
2018-07-11T00:13:55.100Z,22.09
2018-07-11T00:14:55.094Z,22.09
2018-07-11T00:15:55.103Z,22.06
2018-07-11T00:16:55.067Z,22.12
2018-07-11T00:17:55.056Z,22.11
2018-07-11T00:18:55.045Z,22.11
2018-07-11T00:19:55.034Z,22.02
2018-07-11T00:20:55.047Z,22.11
2018-07-11T00:21:55.012Z,22.09
2018-07-11T00:22:55.001Z,22.06
2018-07-11T00:23:54.989Z,22.09
2018-07-11T00:24:54.979Z,22.05
2018-07-11T00:25:54.992Z,22.01
2018-07-11T00:26:54.956Z,22.08
2018-07-11T00:27:54.948Z,22.08
2018-07-11T00:28:54.934Z,21.99
2018-07-11T00:29:54.928Z,22.12
2018-07-11T00:30:54.913Z,22.09
2018-07-11T00:31:54.925Z,22.06
2018-07-11T00:32:54.891Z,22.06
2018-07-11T00:33:54.881Z,22.11
2018-07-11T00:34:54.869Z,22.09
2018-07-11T00:35:54.889Z,22.11
2018-07-11T00:36:54.850Z,22.06
2018-07-11T00:37:54.836Z,22.06
2018-07-11T00:38:54.824Z,22.04
2018-07-11T00:39:54.814Z,22.04
2018-07-11T00:40:54.803Z,21.99
2018-07-11T00:41:54.818Z,21.99
2018-07-11T00:42:54.783Z,22.01
2018-07-11T00:43:54.772Z,21.98
2018-07-11T00:44:54.758Z,22.05
2018-07-11T00:45:54.747Z,21.98
2018-07-11T00:46:54.762Z,21.98
2018-07-11T00:47:54.728Z,21.98
2018-07-11T00:48:54.714Z,21.98
2018-07-11T00:49:54.703Z,21.98
2018-07-11T00:50:54.693Z,22.01
2018-07-11T00:51:54.705Z,22.04
2018-07-11T00:52:54.669Z,21.93
2018-07-11T00:53:54.659Z,21.89
2018-07-11T00:54:54.649Z,21.85
2018-07-11T00:55:54.639Z,21.99
2018-07-11T00:56:54.649Z,21.83
2018-07-11T00:57:54.613Z,21.98
2018-07-11T00:58:54.603Z,21.89
2018-07-11T00:59:54.591Z,21.89
2018-07-11T01:00:54.583Z,21.83
2018-07-11T01:01:54.594Z,21.96
2018-07-11T01:02:54.560Z,21.85
2018-07-11T01:03:54.555Z,21.86
2018-07-11T01:04:54.537Z,21.94
2018-07-11T01:05:54.527Z,21.83
2018-07-11T01:06:54.539Z,21.83
2018-07-11T01:07:54.504Z,21.85
2018-07-11T01:08:54.493Z,21.90
2018-07-11T01:09:54.483Z,21.86
2018-07-11T01:10:54.471Z,21.85
2018-07-11T01:11:54.484Z,21.89
2018-07-11T01:12:54.451Z,21.83
2018-07-11T01:13:54.438Z,21.91
2018-07-11T01:14:54.427Z,21.82
2018-07-11T01:15:54.417Z,21.86
2018-07-11T01:16:54.430Z,21.89
2018-07-11T01:17:54.395Z,21.86
2018-07-11T01:18:54.388Z,21.86
2018-07-11T01:19:54.371Z,21.91
2018-07-11T01:20:54.362Z,21.85
2018-07-11T01:21:54.375Z,21.85
2018-07-11T01:22:54.339Z,21.83
2018-07-11T01:23:54.328Z,21.86
2018-07-11T01:24:54.317Z,21.86
2018-07-11T01:25:54.309Z,21.89
2018-07-11T01:26:54.317Z,21.85
2018-07-11T01:27:54.285Z,21.82
2018-07-11T01:28:54.274Z,21.83
2018-07-11T01:29:54.261Z,21.82
2018-07-11T01:30:54.250Z,21.83
2018-07-11T01:31:54.264Z,21.82
2018-07-11T01:32:54.231Z,21.85
2018-07-11T01:33:54.217Z,21.77
2018-07-11T01:34:54.207Z,21.83
2018-07-11T01:35:54.196Z,21.74
2018-07-11T01:36:54.209Z,21.83
2018-07-11T01:37:54.173Z,21.77
2018-07-11T01:38:54.161Z,21.85
2018-07-11T01:39:54.151Z,21.82
2018-07-11T01:40:54.139Z,21.77
2018-07-11T01:41:54.151Z,21.85
2018-07-11T01:42:54.117Z,21.75
2018-07-11T01:43:54.106Z,21.77
2018-07-11T01:44:54.095Z,21.83
2018-07-11T01:45:54.086Z,21.79
2018-07-11T01:46:54.097Z,21.85
2018-07-11T01:47:54.062Z,21.83
2018-07-11T01:48:54.052Z,21.83
2018-07-11T01:49:54.040Z,21.77
2018-07-11T01:50:54.030Z,21.77
2018-07-11T01:51:54.041Z,21.79
2018-07-11T01:52:54.006Z,21.83
2018-07-11T01:53:53.996Z,21.74
2018-07-11T01:54:53.986Z,21.82
2018-07-11T01:55:53.974Z,21.81
2018-07-11T01:56:53.987Z,21.79
2018-07-11T01:57:53.954Z,21.74
2018-07-11T01:58:53.941Z,21.77
2018-07-11T01:59:53.929Z,21.70
2018-07-11T02:00:53.919Z,21.81
2018-07-11T02:01:53.931Z,21.82
2018-07-11T02:02:53.902Z,21.81
2018-07-11T02:03:53.886Z,21.68
2018-07-11T02:04:53.874Z,21.79
2018-07-11T02:05:53.864Z,21.74
2018-07-11T02:06:53.876Z,21.81
2018-07-11T02:07:53.845Z,21.70
2018-07-11T02:08:53.831Z,21.74
2018-07-11T02:09:53.820Z,21.71
2018-07-11T02:10:53.808Z,21.73
2018-07-11T02:11:53.822Z,21.70
2018-07-11T02:12:53.788Z,21.70
2018-07-11T02:13:53.775Z,21.73
2018-07-11T02:14:53.764Z,21.74
2018-07-11T02:15:53.753Z,21.73
2018-07-11T02:16:53.745Z,21.75
2018-07-11T02:17:53.755Z,21.73
2018-07-11T02:18:53.719Z,21.77
2018-07-11T02:19:53.709Z,21.74
2018-07-11T02:20:53.698Z,21.70
2018-07-11T02:21:53.690Z,21.68
2018-07-11T02:22:53.699Z,21.70
2018-07-11T02:23:53.665Z,21.79
2018-07-11T02:24:53.656Z,21.77
2018-07-11T02:25:53.644Z,21.83
2018-07-11T02:26:53.633Z,21.73
2018-07-11T02:27:53.646Z,21.77
2018-07-11T02:28:53.612Z,21.79
2018-07-11T02:29:53.599Z,21.71
2018-07-11T02:30:53.590Z,21.74
2018-07-11T02:31:53.580Z,21.71
2018-07-11T02:32:53.591Z,21.70
2018-07-11T02:33:53.557Z,21.71
2018-07-11T02:34:53.548Z,21.77
2018-07-11T02:35:53.533Z,21.68
2018-07-11T02:36:53.523Z,21.73
2018-07-11T02:37:53.532Z,21.74
2018-07-11T02:38:53.499Z,21.73
2018-07-11T02:39:53.490Z,21.74
2018-07-11T02:40:53.478Z,21.73
2018-07-11T02:41:53.466Z,21.79
2018-07-11T02:42:53.479Z,21.73
2018-07-11T02:43:53.444Z,21.77
2018-07-11T02:44:53.450Z,21.79
2018-07-11T02:45:53.423Z,21.75
2018-07-11T02:46:53.411Z,21.79
2018-07-11T02:47:53.422Z,21.66
2018-07-11T02:48:53.391Z,21.79
2018-07-11T02:49:53.384Z,21.70
2018-07-11T02:50:53.368Z,21.77
2018-07-11T02:51:53.356Z,21.74
2018-07-11T02:52:53.371Z,21.79
2018-07-11T02:53:53.360Z,21.67
2018-07-11T02:54:53.323Z,21.75
2018-07-11T02:55:53.311Z,21.81
2018-07-11T02:56:53.302Z,21.79
2018-07-11T02:57:53.313Z,21.71
2018-07-11T02:58:53.278Z,21.75
2018-07-11T02:59:53.267Z,21.77
2018-07-11T03:00:53.256Z,21.82
2018-07-11T03:01:53.244Z,21.81
2018-07-11T03:02:53.259Z,21.83
2018-07-11T03:03:53.222Z,21.77
2018-07-11T03:04:53.211Z,21.75
2018-07-11T03:05:53.200Z,21.79
2018-07-11T03:06:53.191Z,21.68
2018-07-11T03:07:53.201Z,21.83
2018-07-11T03:08:53.168Z,21.77
2018-07-11T03:09:53.157Z,21.73
2018-07-11T03:10:53.145Z,21.73
2018-07-11T03:11:53.133Z,21.79
2018-07-11T03:12:53.147Z,21.71
2018-07-11T03:13:53.113Z,21.68
2018-07-11T03:14:53.101Z,21.71
2018-07-11T03:15:53.093Z,21.73
2018-07-11T03:16:53.077Z,21.71
2018-07-11T03:17:53.089Z,21.75
2018-07-11T03:18:53.055Z,21.70
2018-07-11T03:19:53.044Z,21.68
2018-07-11T03:20:53.033Z,21.68
2018-07-11T03:21:53.024Z,21.74
2018-07-11T03:22:53.036Z,21.70
2018-07-11T03:23:53.005Z,21.68
2018-07-11T03:24:52.990Z,21.59
2018-07-11T03:25:52.977Z,21.61
2018-07-11T03:26:52.967Z,21.61
2018-07-11T03:27:52.982Z,21.71
2018-07-11T03:28:52.952Z,21.68
2018-07-11T03:29:52.934Z,21.59
2018-07-11T03:30:52.923Z,21.66
2018-07-11T03:31:52.914Z,21.64
2018-07-11T03:32:52.924Z,21.61
2018-07-11T03:33:52.891Z,21.68
2018-07-11T03:34:52.879Z,21.68
2018-07-11T03:35:52.871Z,21.63
2018-07-11T03:36:52.856Z,21.73
2018-07-11T03:37:52.868Z,21.61
2018-07-11T03:38:52.835Z,21.71
2018-07-11T03:39:52.825Z,21.64
2018-07-11T03:40:52.811Z,21.68
2018-07-11T03:41:52.800Z,21.66
2018-07-11T03:42:52.816Z,21.67
2018-07-11T03:43:52.779Z,21.70
2018-07-11T03:44:52.768Z,21.64
2018-07-11T03:45:52.757Z,21.64
2018-07-11T03:46:52.748Z,21.55
2018-07-11T03:47:52.759Z,21.66
2018-07-11T03:48:52.724Z,21.63
2018-07-11T03:49:52.718Z,21.66
2018-07-11T03:50:52.701Z,21.61
2018-07-11T03:51:52.693Z,21.61
2018-07-11T03:52:52.702Z,21.61
2018-07-11T03:53:52.766Z,21.64
2018-07-11T03:54:52.656Z,21.64
2018-07-11T03:55:52.651Z,21.63
2018-07-11T03:56:52.634Z,21.66
2018-07-11T03:57:52.647Z,21.66
2018-07-11T03:58:52.614Z,21.63
2018-07-11T03:59:52.602Z,21.71
2018-07-11T04:00:52.591Z,21.64
2018-07-11T04:01:52.579Z,21.64
2018-07-11T04:02:52.569Z,21.66
2018-07-11T04:03:52.582Z,21.61
2018-07-11T04:04:52.615Z,21.63
2018-07-11T04:05:52.536Z,21.61
2018-07-11T04:06:52.527Z,21.58
2018-07-11T04:07:52.514Z,21.56
2018-07-11T04:08:52.525Z,21.61
2018-07-11T04:09:52.492Z,21.56
2018-07-11T04:10:52.480Z,21.55
2018-07-11T04:11:52.468Z,21.63
2018-07-11T04:12:52.460Z,21.64
2018-07-11T04:13:52.471Z,21.64
2018-07-11T04:14:52.436Z,21.64
2018-07-11T04:15:52.425Z,21.61
2018-07-11T04:16:52.414Z,21.59
2018-07-11T04:17:52.404Z,21.58
2018-07-11T04:18:52.416Z,21.66
2018-07-11T04:19:52.381Z,21.61
2018-07-11T04:20:52.371Z,21.64
2018-07-11T04:21:52.360Z,21.63
2018-07-11T04:22:52.349Z,21.68
2018-07-11T04:23:52.362Z,21.59
2018-07-11T04:24:52.326Z,21.61
2018-07-11T04:25:52.314Z,21.59
2018-07-11T04:26:52.305Z,21.63
2018-07-11T04:27:52.295Z,21.61
2018-07-11T04:28:52.326Z,21.58
2018-07-11T04:29:52.270Z,21.63
2018-07-11T04:30:52.260Z,21.59
2018-07-11T04:31:52.250Z,21.59
2018-07-11T04:32:52.237Z,21.59
2018-07-11T04:33:52.251Z,21.61
2018-07-11T04:34:52.217Z,21.61
2018-07-11T04:35:52.205Z,21.67
2018-07-11T04:36:52.195Z,21.63
2018-07-11T04:37:52.182Z,21.66
2018-07-11T04:38:52.195Z,21.63
2018-07-11T04:39:52.160Z,21.66
2018-07-11T04:40:52.150Z,21.63
2018-07-11T04:41:52.139Z,21.58
2018-07-11T04:42:52.127Z,21.64
2018-07-11T04:43:52.140Z,21.66
2018-07-11T04:44:52.105Z,21.63
2018-07-11T04:45:52.095Z,21.64
2018-07-11T04:46:52.083Z,21.58
2018-07-11T04:47:52.073Z,21.64
2018-07-11T04:48:52.086Z,21.64
2018-07-11T04:49:52.049Z,21.68
2018-07-11T04:50:52.040Z,21.66
2018-07-11T04:51:52.028Z,21.70
2018-07-11T04:52:52.018Z,21.70
2018-07-11T04:53:52.030Z,21.75
2018-07-11T04:54:51.997Z,21.73
2018-07-11T04:55:51.983Z,21.67
2018-07-11T04:56:51.973Z,21.71
2018-07-11T04:57:51.961Z,21.66
2018-07-11T04:58:52.025Z,21.61
2018-07-11T04:59:51.940Z,21.64
2018-07-11T05:00:51.928Z,21.71
2018-07-11T05:01:51.918Z,21.73
2018-07-11T05:02:51.907Z,21.71
2018-07-11T05:03:51.921Z,21.71
2018-07-11T05:04:51.919Z,21.68
2018-07-11T05:05:51.874Z,21.68
2018-07-11T05:06:51.863Z,21.68
2018-07-11T05:07:51.852Z,21.79
2018-07-11T05:08:51.864Z,21.75
2018-07-11T05:09:51.829Z,21.77
2018-07-11T05:10:51.875Z,21.77
2018-07-11T05:11:51.807Z,21.74
2018-07-11T05:12:51.801Z,21.82
2018-07-11T05:13:51.807Z,21.77
2018-07-11T05:14:51.774Z,21.83
2018-07-11T05:15:51.763Z,21.85
2018-07-11T05:16:51.752Z,21.83
2018-07-11T05:17:51.743Z,21.89
2018-07-11T05:18:51.752Z,21.86
2018-07-11T05:19:51.718Z,21.85
2018-07-11T05:20:51.707Z,21.81
2018-07-11T05:21:51.698Z,21.90
2018-07-11T05:22:51.685Z,21.83
2018-07-11T05:23:51.697Z,21.90
2018-07-11T05:24:51.669Z,21.89
2018-07-11T05:25:51.654Z,21.89
2018-07-11T05:26:51.641Z,21.96
2018-07-11T05:27:51.630Z,21.85
2018-07-11T05:28:51.642Z,21.82
2018-07-11T05:29:51.610Z,21.86
2018-07-11T05:30:51.598Z,21.86
2018-07-11T05:31:51.586Z,21.91
2018-07-11T05:32:51.576Z,21.98
2018-07-11T05:33:51.586Z,21.96
2018-07-11T05:34:51.552Z,21.94
2018-07-11T05:35:51.542Z,21.96
2018-07-11T05:36:51.533Z,21.89
2018-07-11T05:37:51.520Z,21.86
2018-07-11T05:38:51.511Z,21.94
2018-07-11T05:39:51.521Z,21.94
2018-07-11T05:40:51.485Z,21.91
2018-07-11T05:41:51.475Z,21.99
2018-07-11T05:42:51.463Z,21.99
2018-07-11T05:43:51.476Z,21.90
2018-07-11T05:44:51.442Z,21.86
2018-07-11T05:45:51.452Z,21.99
2018-07-11T05:46:51.419Z,21.96
2018-07-11T05:47:51.408Z,21.98
2018-07-11T05:48:51.400Z,21.98
2018-07-11T05:49:51.409Z,21.98
2018-07-11T05:50:51.376Z,21.96
2018-07-11T05:51:51.364Z,22.01
2018-07-11T05:52:51.356Z,21.98
2018-07-11T05:53:51.351Z,22.02
2018-07-11T05:54:51.357Z,22.04
2018-07-11T05:55:51.341Z,21.94
2018-07-11T05:56:51.308Z,22.01
2018-07-11T05:57:51.299Z,22.06
2018-07-11T05:58:51.288Z,21.96
2018-07-11T05:59:51.315Z,21.98
2018-07-11T06:00:51.265Z,21.96
2018-07-11T06:01:51.253Z,22.01
2018-07-11T06:02:51.243Z,21.99
2018-07-11T06:03:51.234Z,22.08
2018-07-11T06:04:51.244Z,21.99
2018-07-11T06:05:51.210Z,22.04
2018-07-11T06:06:51.201Z,21.93
2018-07-11T06:07:51.188Z,22.05
2018-07-11T06:08:51.183Z,22.02
2018-07-11T06:09:51.189Z,21.98
2018-07-11T06:10:51.156Z,22.06
2018-07-11T06:11:51.144Z,22.04
2018-07-11T06:12:51.132Z,22.06
2018-07-11T06:13:51.123Z,21.96
2018-07-11T06:14:51.134Z,22.02
2018-07-11T06:15:51.101Z,22.05
2018-07-11T06:16:51.088Z,22.06
2018-07-11T06:17:51.076Z,21.99
2018-07-11T06:18:51.067Z,22.02
2018-07-11T06:19:51.077Z,21.98
2018-07-11T06:20:51.042Z,22.02
2018-07-11T06:21:51.032Z,22.06
2018-07-11T06:22:51.020Z,22.05
2018-07-11T06:23:51.013Z,22.11
2018-07-11T06:24:51.023Z,22.09
2018-07-11T06:25:50.987Z,22.20
2018-07-11T06:26:50.977Z,22.14
2018-07-11T06:27:50.969Z,22.11
2018-07-11T06:28:50.958Z,22.17
2018-07-11T06:29:50.967Z,22.06
2018-07-11T06:30:50.935Z,22.23
2018-07-11T06:31:50.922Z,22.20
2018-07-11T06:32:50.911Z,22.27
2018-07-11T06:33:50.979Z,22.20
2018-07-11T06:34:50.911Z,22.23
2018-07-11T06:35:50.878Z,22.21
2018-07-11T06:36:50.867Z,22.19
2018-07-11T06:37:50.860Z,22.17
2018-07-11T06:38:50.844Z,22.20
2018-07-11T06:39:50.857Z,22.19
2018-07-11T06:40:50.825Z,22.23
2018-07-11T06:41:50.811Z,22.20
2018-07-11T06:42:50.801Z,22.27
2018-07-11T06:43:50.792Z,22.23
2018-07-11T06:44:50.804Z,22.23
2018-07-11T06:45:50.767Z,22.26
2018-07-11T06:46:50.756Z,22.19
2018-07-11T06:47:50.777Z,22.20
2018-07-11T06:48:50.734Z,22.26
2018-07-11T06:49:50.745Z,22.20
2018-07-11T06:50:50.711Z,22.24
2018-07-11T06:51:50.706Z,22.29
2018-07-11T06:52:50.688Z,22.27
2018-07-11T06:53:50.678Z,22.26
2018-07-11T06:54:50.693Z,22.31
2018-07-11T06:55:50.655Z,22.26
2018-07-11T06:56:50.643Z,22.31
2018-07-11T06:57:50.633Z,21.99
2018-07-11T06:58:50.621Z,21.86
2018-07-11T06:59:50.637Z,21.74
2018-07-11T07:00:50.603Z,21.74
2018-07-11T07:01:50.589Z,21.61
2018-07-11T07:02:50.577Z,21.53
2018-07-11T07:03:50.566Z,21.18
2018-07-11T07:04:50.577Z,20.93
2018-07-11T07:05:50.543Z,20.68
2018-07-11T07:06:50.575Z,20.26
2018-07-11T07:07:50.526Z,19.95
2018-07-11T07:08:50.512Z,19.76
2018-07-11T07:09:50.526Z,19.61
2018-07-11T07:10:50.490Z,19.50
2018-07-11T07:11:50.479Z,19.49
2018-07-11T07:12:50.469Z,19.34
2018-07-11T07:13:50.456Z,19.27
2018-07-11T07:14:50.468Z,19.25
2018-07-11T07:15:50.435Z,19.21
2018-07-11T07:16:50.427Z,19.17
2018-07-11T07:17:50.413Z,19.24
2018-07-11T07:18:50.402Z,19.21
2018-07-11T07:19:50.436Z,19.15
2018-07-11T07:20:50.378Z,19.16
2018-07-11T07:21:50.367Z,19.12
2018-07-11T07:22:50.357Z,18.96
2018-07-11T07:23:50.345Z,18.99
2018-07-11T07:24:50.361Z,19.12
2018-07-11T07:25:50.328Z,19.34
2018-07-11T07:26:50.312Z,19.39
2018-07-11T07:27:50.301Z,19.61
2018-07-11T07:28:50.288Z,19.86
2018-07-11T07:29:50.280Z,19.98
2018-07-11T07:30:50.291Z,20.10
2018-07-11T07:31:50.257Z,20.23
2018-07-11T07:32:50.247Z,20.27
2018-07-11T07:33:50.275Z,20.46
2018-07-11T07:34:50.308Z,20.46
2018-07-11T07:35:50.214Z,20.13
2018-07-11T07:36:50.259Z,19.75
2018-07-11T07:37:50.190Z,19.45
2018-07-11T07:38:50.178Z,19.13
2018-07-11T07:39:50.168Z,18.79
2018-07-11T07:40:50.179Z,18.59
2018-07-11T07:41:50.143Z,18.44
2018-07-11T07:42:50.136Z,18.28
2018-07-11T07:43:50.128Z,18.25
2018-07-11T07:44:50.112Z,18.11
2018-07-11T07:45:50.126Z,18.04
2018-07-11T07:46:50.088Z,17.99
2018-07-11T07:47:50.078Z,17.96
2018-07-11T07:48:50.067Z,17.99
2018-07-11T07:49:50.055Z,18.02
2018-07-11T07:50:50.066Z,18.01
2018-07-11T07:51:50.033Z,18.04
2018-07-11T07:52:50.086Z,18.02
2018-07-11T07:53:50.014Z,18.17
2018-07-11T07:54:49.999Z,18.11
2018-07-11T07:55:50.018Z,18.10
2018-07-11T07:56:49.980Z,18.23
2018-07-11T07:57:49.969Z,18.25
2018-07-11T07:58:49.957Z,18.14
2018-07-11T07:59:50.020Z,18.19
2018-07-11T08:00:49.956Z,18.32
2018-07-11T08:01:49.921Z,18.20
2018-07-11T08:02:49.911Z,18.25
2018-07-11T08:03:49.947Z,18.09
2018-07-11T08:04:49.888Z,18.01
2018-07-11T08:05:49.899Z,17.83
2018-07-11T08:06:49.886Z,17.79
2018-07-11T08:07:49.853Z,17.81
2018-07-11T08:08:49.846Z,17.76
2018-07-11T08:09:49.832Z,17.74
2018-07-11T08:10:49.844Z,17.77
2018-07-11T08:11:49.835Z,17.77
2018-07-11T08:12:49.799Z,17.80
2018-07-11T08:13:49.787Z,17.70
2018-07-11T08:14:49.776Z,17.68
2018-07-11T08:15:49.789Z,17.76
2018-07-11T08:16:49.754Z,17.84
2018-07-11T08:17:49.792Z,17.94
2018-07-11T08:18:49.731Z,17.98
2018-07-11T08:19:49.719Z,18.05
2018-07-11T08:20:49.732Z,18.09
2018-07-11T08:21:49.699Z,18.13
2018-07-11T08:22:49.687Z,18.17
2018-07-11T08:23:49.679Z,18.16
2018-07-11T08:24:49.665Z,18.26
2018-07-11T08:25:49.679Z,18.28
2018-07-11T08:26:49.643Z,18.36
2018-07-11T08:27:49.631Z,18.41
2018-07-11T08:28:49.618Z,18.50
2018-07-11T08:29:49.610Z,18.66
2018-07-11T08:30:49.625Z,18.76
2018-07-11T08:31:49.588Z,18.74
2018-07-11T08:32:49.576Z,18.86
2018-07-11T08:33:49.565Z,18.90
2018-07-11T08:34:49.554Z,18.82
2018-07-11T08:35:49.566Z,18.78
2018-07-11T08:36:49.531Z,18.76
2018-07-11T08:37:49.520Z,18.83
2018-07-11T08:38:49.509Z,18.87
2018-07-11T08:39:49.499Z,18.89
2018-07-11T08:40:49.696Z,18.89
2018-07-11T08:41:49.476Z,18.74
2018-07-11T08:42:49.467Z,18.71
2018-07-11T08:43:49.456Z,18.72
2018-07-11T08:44:49.459Z,18.69
2018-07-11T08:45:49.454Z,18.74
2018-07-11T08:46:49.420Z,18.54
2018-07-11T08:47:49.539Z,18.44
2018-07-11T08:48:49.397Z,18.39
2018-07-11T08:49:49.388Z,18.29
2018-07-11T08:50:49.398Z,18.36
2018-07-11T08:51:49.365Z,18.35
2018-07-11T08:52:49.353Z,18.34
2018-07-11T08:53:49.342Z,18.34
2018-07-11T08:54:49.337Z,18.28
2018-07-11T08:55:49.342Z,18.38
2018-07-11T08:56:49.309Z,18.42
2018-07-11T08:57:49.297Z,18.47
2018-07-11T08:58:49.286Z,18.60
2018-07-11T08:59:49.274Z,18.68
2018-07-11T09:00:49.287Z,18.65
2018-07-11T09:01:49.253Z,18.64
2018-07-11T09:02:49.404Z,18.65
2018-07-11T09:03:49.233Z,18.71
2018-07-11T09:04:49.220Z,18.65
2018-07-11T09:05:49.231Z,18.69
2018-07-11T09:06:49.197Z,18.75
2018-07-11T09:07:49.186Z,18.72
2018-07-11T09:08:49.178Z,18.75
2018-07-11T09:09:49.164Z,18.68
2018-07-11T09:10:49.220Z,18.72
2018-07-11T09:11:49.140Z,18.69
2018-07-11T09:12:49.131Z,18.66
2018-07-11T09:13:49.119Z,18.68
2018-07-11T09:14:49.107Z,18.65
2018-07-11T09:15:49.102Z,18.60
2018-07-11T09:16:49.108Z,18.60
2018-07-11T09:17:49.077Z,18.57
2018-07-11T09:18:49.065Z,18.60
2018-07-11T09:19:49.052Z,18.62
2018-07-11T09:20:49.042Z,18.54
2018-07-11T09:21:49.052Z,18.62
2018-07-11T09:22:49.020Z,18.62
2018-07-11T09:23:49.007Z,18.68
2018-07-11T09:24:48.997Z,18.60
2018-07-11T09:25:48.988Z,18.66
2018-07-11T09:26:49.002Z,18.72
2018-07-11T09:27:48.963Z,18.65
2018-07-11T09:28:48.952Z,18.59
2018-07-11T09:29:48.941Z,18.65
2018-07-11T09:30:48.931Z,18.74
2018-07-11T09:31:48.940Z,18.71
2018-07-11T09:32:48.907Z,18.86
2018-07-11T09:33:48.896Z,18.90
2018-07-11T09:34:48.885Z,19.01
2018-07-11T09:35:48.876Z,19.10
2018-07-11T09:36:48.886Z,19.09
2018-07-11T09:37:48.852Z,19.09
2018-07-11T09:38:48.841Z,19.17
2018-07-11T09:39:48.829Z,19.28
2018-07-11T09:40:48.820Z,19.42
2018-07-11T09:41:48.830Z,19.47
2018-07-11T09:42:48.797Z,19.57
2018-07-11T09:43:48.787Z,19.58
2018-07-11T09:44:48.773Z,19.60
2018-07-11T09:45:48.764Z,19.75
2018-07-11T09:46:48.774Z,19.87
2018-07-11T09:47:48.745Z,19.94
2018-07-11T09:48:48.729Z,19.86
2018-07-11T09:49:48.718Z,19.78
2018-07-11T09:50:48.707Z,19.76
2018-07-11T09:51:48.721Z,19.75
2018-07-11T09:52:48.685Z,19.78
2018-07-11T09:53:48.713Z,19.72
2018-07-11T09:54:48.664Z,19.71
2018-07-11T09:55:48.652Z,19.71
2018-07-11T09:56:48.664Z,19.76
2018-07-11T09:57:48.692Z,19.83
2018-07-11T09:58:48.620Z,19.80
2018-07-11T09:59:48.606Z,19.68
2018-07-11T10:00:48.597Z,19.71
2018-07-11T10:01:48.607Z,19.83
2018-07-11T10:02:48.574Z,19.83
2018-07-11T10:03:48.562Z,19.87
2018-07-11T10:04:48.551Z,19.98
2018-07-11T10:05:48.540Z,20.01
2018-07-11T10:06:48.552Z,20.15
2018-07-11T10:07:48.518Z,20.20
2018-07-11T10:08:48.506Z,20.19
2018-07-11T10:09:48.496Z,20.31
2018-07-11T10:10:48.484Z,20.31
2018-07-11T10:11:48.532Z,20.40
2018-07-11T10:12:48.462Z,20.54
2018-07-11T10:13:48.450Z,20.63
2018-07-11T10:14:48.440Z,20.63
2018-07-11T10:15:48.428Z,20.69
2018-07-11T10:16:48.439Z,20.73
2018-07-11T10:17:48.406Z,20.82
2018-07-11T10:18:48.397Z,20.71
2018-07-11T10:19:48.384Z,20.85
2018-07-11T10:20:48.372Z,20.90
2018-07-11T10:21:48.386Z,20.94
2018-07-11T10:22:48.351Z,21.13
2018-07-11T10:23:48.339Z,21.21
2018-07-11T10:24:48.328Z,21.19
2018-07-11T10:25:48.317Z,21.28
2018-07-11T10:26:48.328Z,21.37
2018-07-11T10:27:48.295Z,21.33
2018-07-11T10:28:48.284Z,21.36
2018-07-11T10:29:48.272Z,21.31
2018-07-11T10:30:48.262Z,21.53
2018-07-11T10:31:48.274Z,21.43
2018-07-11T10:32:48.240Z,21.55
2018-07-11T10:33:48.232Z,21.56
2018-07-11T10:34:48.220Z,21.67
2018-07-11T10:35:48.209Z,21.70
2018-07-11T10:36:48.221Z,21.74
2018-07-11T10:37:48.184Z,21.81
2018-07-11T10:38:48.174Z,21.75
2018-07-11T10:39:48.163Z,21.81
2018-07-11T10:40:48.152Z,21.85
2018-07-11T10:41:48.191Z,21.74
2018-07-11T10:42:48.129Z,21.75
2018-07-11T10:43:48.138Z,21.82
2018-07-11T10:44:48.110Z,21.86
2018-07-11T10:45:48.101Z,21.98
2018-07-11T10:46:48.089Z,22.08
2018-07-11T10:47:48.096Z,22.21
2018-07-11T10:48:48.062Z,22.26
2018-07-11T10:49:48.055Z,22.20
2018-07-11T10:50:48.043Z,22.26
2018-07-11T10:51:48.053Z,22.27
2018-07-11T10:52:48.019Z,22.33
2018-07-11T10:53:48.015Z,22.41
2018-07-11T10:54:47.996Z,22.44
2018-07-11T10:55:47.986Z,22.51
2018-07-11T10:56:47.978Z,22.60
2018-07-11T10:57:48.086Z,22.69
2018-07-11T10:58:47.953Z,22.84
2018-07-11T10:59:47.940Z,22.82
2018-07-11T11:01:05.026Z,22.86
2018-07-11T11:01:47.920Z,22.99
2018-07-11T11:02:47.994Z,23.03
2018-07-11T11:03:47.897Z,23.12
2018-07-11T11:04:47.927Z,23.14
2018-07-11T11:05:47.874Z,23.16
2018-07-11T11:06:47.863Z,23.29
2018-07-11T11:07:47.875Z,23.31
2018-07-11T11:08:47.842Z,23.38
2018-07-11T11:09:47.835Z,23.45
2018-07-11T11:10:47.828Z,23.49
2018-07-11T11:11:47.809Z,23.45
2018-07-11T11:12:47.821Z,23.44
2018-07-11T11:13:47.784Z,23.35
2018-07-11T11:14:48.230Z,23.41
2018-07-11T11:15:47.763Z,23.26
2018-07-11T11:16:47.752Z,23.09
2018-07-11T11:17:47.764Z,23.01
2018-07-11T11:18:47.729Z,22.96
2018-07-11T11:19:47.716Z,23.07
2018-07-11T11:20:47.707Z,23.11
2018-07-11T11:21:47.696Z,23.14
2018-07-11T11:22:47.709Z,23.12
2018-07-11T11:23:47.674Z,23.16
2018-07-11T11:24:47.663Z,23.22
2018-07-11T11:25:47.696Z,23.21
2018-07-11T11:26:47.641Z,23.31
2018-07-11T11:27:47.653Z,23.31
2018-07-11T11:28:47.618Z,23.38
2018-07-11T11:29:47.612Z,23.18
2018-07-11T11:30:47.597Z,23.31
2018-07-11T11:31:47.584Z,23.35
2018-07-11T11:32:47.600Z,23.42
2018-07-11T11:33:47.563Z,23.56
2018-07-11T11:34:47.552Z,23.64
2018-07-11T11:35:47.547Z,23.78
2018-07-11T11:36:47.530Z,23.67
2018-07-11T11:37:47.547Z,23.75
2018-07-11T11:38:47.507Z,23.86
2018-07-11T11:39:47.498Z,23.84
2018-07-11T11:40:47.485Z,23.97
2018-07-11T11:41:47.509Z,24.06
2018-07-11T11:42:47.564Z,24.05
2018-07-11T11:43:47.457Z,24.12
2018-07-11T11:44:47.442Z,24.15
2018-07-11T11:45:47.460Z,24.19
2018-07-11T11:46:47.419Z,24.09
2018-07-11T11:47:47.433Z,24.11
2018-07-11T11:48:47.397Z,24.09
2018-07-11T11:49:47.386Z,23.99
2018-07-11T11:50:47.376Z,23.94
2018-07-11T11:51:47.365Z,23.78
2018-07-11T11:52:47.379Z,23.78
2018-07-11T11:53:47.343Z,23.62
2018-07-11T11:54:47.332Z,23.44
2018-07-11T11:55:47.320Z,23.45
2018-07-11T11:56:47.311Z,23.26
2018-07-11T11:57:47.321Z,23.21
2018-07-11T11:58:47.288Z,23.11
2018-07-11T11:59:47.277Z,22.99
2018-07-11T12:00:47.265Z,22.88
2018-07-11T12:01:47.277Z,22.91
2018-07-11T12:02:47.267Z,23.09
2018-07-11T12:03:47.233Z,23.15
2018-07-11T12:04:47.225Z,23.29
2018-07-11T12:05:47.211Z,23.21
2018-07-11T12:06:47.200Z,23.32
2018-07-11T12:07:47.211Z,23.56
2018-07-11T12:08:47.177Z,23.77
2018-07-11T12:09:47.169Z,23.97
2018-07-11T12:10:47.155Z,24.14
2018-07-11T12:11:47.145Z,24.23
2018-07-11T12:12:47.157Z,24.24
2018-07-11T12:13:47.122Z,24.29
2018-07-11T12:14:47.111Z,24.42
2018-07-11T12:15:47.101Z,24.36
2018-07-11T12:16:47.090Z,24.06
2018-07-11T12:17:47.101Z,24.06
2018-07-11T12:18:47.068Z,24.09
2018-07-11T12:19:47.057Z,24.05
2018-07-11T12:20:47.047Z,23.96
2018-07-11T12:21:47.035Z,23.92
2018-07-11T12:22:47.045Z,23.96
2018-07-11T12:23:47.013Z,24.19
2018-07-11T12:24:47.001Z,24.31
2018-07-11T12:25:46.990Z,24.34
2018-07-11T12:26:46.980Z,24.44
2018-07-11T12:27:47.018Z,24.34
2018-07-11T12:28:46.960Z,24.36
2018-07-11T12:29:46.944Z,24.14
2018-07-11T12:30:46.941Z,24.77
2018-07-11T12:31:46.961Z,25.75
2018-07-11T12:32:46.938Z,26.32
2018-07-11T12:33:47.068Z,26.38
2018-07-11T12:34:47.064Z,26.12
2018-07-11T12:35:46.919Z,26.19
2018-07-11T12:36:46.909Z,26.08
2018-07-11T12:37:46.867Z,25.94
2018-07-11T12:38:46.876Z,25.41
2018-07-11T12:39:46.842Z,25.01
2018-07-11T12:40:46.827Z,24.82
2018-07-11T12:41:46.815Z,24.83
2018-07-11T12:42:46.808Z,24.90
2018-07-11T12:43:46.817Z,24.93
2018-07-11T12:44:46.803Z,24.94
2018-07-11T12:45:46.786Z,25.14
2018-07-11T12:46:46.766Z,25.29
2018-07-11T12:47:46.757Z,25.35
2018-07-11T12:48:46.762Z,25.48
2018-07-11T12:49:46.727Z,25.27
2018-07-11T12:50:46.747Z,25.24
2018-07-11T12:51:46.716Z,25.24
2018-07-11T12:52:46.695Z,25.36